Time;durP1;ratioP1;P1;durP2;ratioP2;P2;SDS_P1;SDS_P2;PMS_P1;PMS_P2;Temp;Humidity;BMP_temperature;BMP_pressure;BME280_temperature;BME280_humidity;BME280_pressure;Samples;Min_cycle;Max_cycle;Signal;HPM_P1;HPM_P2
2023/03/02 00:03:27;;;;;;;;;;;;;;;15.72;47.61;96451.47;10324145;28;20097;-31
2023/03/02 00:08:28;;;;;;;9.05;5.32;;;;;;;15.70;47.77;96453.13;10328077;28;20422;-32
2023/03/02 00:13:30;;;;;;;6.53;5.13;;;;;;;15.72;47.86;96441.38;10327653;28;21381;-31
2023/03/02 00:18:30;;;;;;;7.20;4.97;;;;;;;15.75;47.42;96446.44;10338754;28;20037;-31
2023/03/02 00:23:31;;;;;;;6.43;4.80;;;;;;;15.75;47.60;96440.53;10342182;28;20045;-31
2023/03/02 00:28:32;;;;;;;7.10;5.03;;;;;;;15.70;47.61;96427.06;10328004;28;20042;-31
2023/03/02 00:33:33;;;;;;;8.05;5.35;;;;;;;15.78;47.25;96435.53;10330840;28;20045;-31
2023/03/02 00:38:33;;;;;;;5.63;4.57;;;;;;;15.83;47.18;96418.72;10315876;28;20502;-32
2023/03/02 00:43:34;;;;;;;6.90;4.27;;;;;;;15.84;47.19;96417.88;10319441;28;20030;-31
2023/03/02 00:48:34;;;;;;;5.37;4.47;;;;;;;15.82;47.14;96411.97;10335317;28;20038;-31
2023/03/02 00:53:36;;;;;;;8.43;5.05;;;;;;;15.81;47.14;96421.25;10328000;28;20238;-32
2023/03/02 00:58:36;;;;;;;6.28;4.60;;;;;;;15.78;47.27;96415.34;10299209;28;20037;-31
2023/03/02 01:03:37;;;;;;;7.72;4.85;;;;;;;15.78;47.19;96398.50;10312119;28;20034;-31
2023/03/02 01:08:38;;;;;;;7.18;5.03;;;;;;;15.78;47.20;96401.00;10314772;28;20053;-31
2023/03/02 01:13:38;;;;;;;8.20;4.77;;;;;;;15.77;46.98;96394.28;10338913;28;20044;-32
2023/03/02 01:18:40;;;;;;;6.07;4.60;;;;;;;15.76;47.41;96400.16;10343771;28;20029;-31
2023/03/02 01:23:41;;;;;;;5.60;4.63;;;;;;;15.74;47.35;96393.41;10347020;28;20052;-31
2023/03/02 01:28:42;;;;;;;7.15;4.78;;;;;;;15.73;47.39;96391.72;10319567;28;20108;-31
2023/03/02 01:33:43;;;;;;;6.35;4.55;;;;;;;15.73;47.79;96377.44;10335017;28;20034;-30
2023/03/02 01:38:46;;;;;;;6.83;4.87;;;;;;;15.73;47.11;96371.53;10330043;28;20113;-31
2023/03/02 01:43:46;;;;;;;5.30;4.03;;;;;;;15.73;47.79;96363.97;10343694;28;20357;-32
2023/03/02 01:48:55;;;;;;;5.87;4.53;;;;;;;15.70;47.19;96357.22;10311856;28;20574;-31
2023/03/02 01:54:21;;;;;;;5.10;4.33;;;;;;;15.69;47.30;96347.97;10324550;28;20665;-31
2023/03/02 01:59:26;;;;;;;6.03;4.45;;;;;;;15.76;47.91;96347.16;10309957;28;20285;-31
2023/03/02 02:04:29;;;;;;;5.70;4.40;;;;;;;15.78;47.72;96339.63;10341397;28;20046;-31
2023/03/02 02:09:34;;;;;;;5.70;4.20;;;;;;;15.75;47.48;96345.50;10316206;28;20452;-35
2023/03/02 02:14:35;;;;;;;5.20;4.38;;;;;;;15.73;47.12;96342.13;10320846;28;20053;-31
2023/03/02 02:20:00;;;;;;;4.80;4.07;;;;;;;15.72;47.17;96340.44;10311403;28;20030;-32
2023/03/02 02:25:05;;;;;;;7.05;3.95;;;;;;;15.69;47.71;96345.44;10315957;28;20483;-31
2023/03/02 02:30:06;;;;;;;5.10;4.18;;;;;;;15.69;47.21;96349.66;10328617;28;20141;-31
2023/03/02 02:35:23;;;;;;;5.15;3.83;;;;;;;15.69;47.52;96344.63;10313609;28;20041;-32
2023/03/02 02:40:40;;;;;;;4.45;4.05;;;;;;;15.70;47.30;96342.09;10317959;28;20050;-31
2023/03/02 02:45:41;;;;;;;5.20;3.97;;;;;;;15.71;47.12;96342.94;10321866;28;20399;-31
2023/03/02 02:50:43;;;;;;;4.88;4.05;;;;;;;15.68;47.71;96333.66;10350229;28;20037;-31
2023/03/02 02:55:49;;;;;;;13.55;5.70;;;;;;;15.68;47.42;96343.78;10330131;28;20453;-31
2023/03/02 03:00:50;;;;;;;4.80;4.10;;;;;;;15.70;47.25;96341.25;10318715;28;20022;-31
2023/03/02 03:05:51;;;;;;;4.88;4.05;;;;;;;15.66;47.39;96345.44;10323270;28;20030;-31
2023/03/02 03:10:51;;;;;;;5.40;4.30;;;;;;;15.63;47.60;96340.41;10351772;28;20037;-31
2023/03/02 03:15:52;;;;;;;6.55;3.95;;;;;;;15.64;47.62;96347.13;10317447;28;20649;-30
2023/03/02 03:20:52;;;;;;;4.55;3.75;;;;;;;15.68;47.30;96348.81;10339117;28;20030;-32
2023/03/02 03:25:53;;;;;;;5.20;4.43;;;;;;;15.74;47.83;96348.84;10330847;28;20034;-31
2023/03/02 03:30:53;;;;;;;4.63;4.03;;;;;;;15.76;47.08;96344.66;10339430;28;20673;-32
2023/03/02 03:35:54;;;;;;;5.10;4.15;;;;;;;15.70;47.19;96344.59;10307054;28;20057;-32
2023/03/02 03:40:56;;;;;;;11.23;3.95;;;;;;;15.74;47.23;96336.22;10317375;28;20033;-31
2023/03/02 03:45:56;;;;;;;4.57;3.58;;;;;;;15.74;47.26;96348.00;10323506;28;20022;-31
2023/03/02 03:50:59;;;;;;;4.22;3.72;;;;;;;15.73;46.92;96352.22;10332093;28;20034;-32
2023/03/02 03:56:00;;;;;;;4.47;4.07;;;;;;;15.71;47.43;96356.38;10317329;28;20033;-31
2023/03/02 04:01:00;;;;;;;5.32;4.03;;;;;;;15.73;47.13;96353.88;10323880;28;20019;-31
2023/03/02 04:06:01;;;;;;;4.53;4.07;;;;;;;15.74;46.98;96358.09;10310942;28;20034;-31
2023/03/02 04:11:01;;;;;;;4.78;3.70;;;;;;;15.74;46.52;96358.94;10323426;28;20027;-31
2023/03/02 04:16:02;;;;;;;4.57;4.10;;;;;;;15.74;46.85;96363.13;10327024;28;20447;-32
2023/03/02 04:21:02;;;;;;;5.75;3.65;;;;;;;15.70;47.02;96371.53;10330762;28;20033;-32
2023/03/02 04:26:04;;;;;;;5.80;4.32;;;;;;;15.68;47.24;96374.03;10333384;28;20038;-32
2023/03/02 04:31:05;;;;;;;4.35;3.60;;;;;;;15.68;47.39;96388.38;10313437;28;20034;-31
2023/03/02 04:36:05;;;;;;;4.95;3.83;;;;;;;15.66;46.92;96398.44;10327555;28;20044;-31
2023/03/02 04:41:06;;;;;;;4.40;3.90;;;;;;;15.64;47.09;96406.81;10320062;28;20464;-31
2023/03/02 04:46:06;;;;;;;4.73;4.10;;;;;;;15.70;47.23;96402.66;10350136;28;20444;-31
2023/03/02 04:51:17;;;;;;;5.80;4.10;;;;;;;15.73;46.95;96412.78;10322201;28;20123;-31
2023/03/02 04:56:18;;;;;;;4.43;4.03;;;;;;;15.72;46.77;96410.25;10304327;28;20384;-31
2023/03/02 05:01:19;;;;;;;6.13;4.38;;;;;;;15.71;46.73;96411.91;10300224;28;20564;-32
2023/03/02 05:06:24;;;;;;;3.85;3.47;;;;;;;15.74;46.47;96421.19;10313526;28;20406;-31
2023/03/02 05:11:25;;;;;;;5.43;4.13;;;;;;;15.78;46.18;96421.22;10335249;28;20050;-32
2023/03/02 05:16:28;;;;;;;5.35;4.47;;;;;;;15.82;45.69;96433.03;10313368;28;20037;-31
2023/03/02 05:21:29;;;;;;;6.03;3.70;;;;;;;15.84;45.70;96438.06;10288024;28;20045;-31
2023/03/02 05:26:29;;;;;;;5.90;4.53;;;;;;;15.86;45.81;96426.31;10317915;28;20038;-32
2023/03/02 05:31:36;;;;;;;6.18;5.10;;;;;;;15.86;45.80;96423.78;10347195;28;20465;-31
2023/03/02 05:36:37;;;;;;;5.18;4.05;;;;;;;15.89;45.65;96423.78;10330981;28;20038;-31
2023/03/02 05:41:38;;;;;;;5.97;4.63;;;;;;;15.88;45.65;96432.22;10322490;28;20030;-31
2023/03/02 05:46:39;;;;;;;6.32;4.57;;;;;;;15.92;45.19;96449.03;10327924;28;20046;-31
2023/03/02 05:51:39;;;;;;;13.18;7.00;;;;;;;15.68;46.26;96459.84;10336767;28;20418;-32
2023/03/02 05:56:40;;;;;;;10.07;6.47;;;;;;;15.80;45.88;96465.00;10329181;28;20034;-31
2023/03/02 06:01:41;;;;;;;9.63;6.47;;;;;;;15.76;45.08;96459.91;10322513;28;20790;-31
2023/03/02 06:06:41;;;;;;;12.20;7.07;;;;;;;15.89;45.94;96465.03;10348343;28;20066;-31
2023/03/02 06:11:42;;;;;;;8.80;6.70;;;;;;;15.94;45.46;96472.63;10341305;28;20296;-32
2023/03/02 06:16:42;;;;;;;10.53;6.37;;;;;;;15.94;45.92;96468.41;10370169;28;20091;-31
2023/03/02 06:21:42;;;;;;;15.13;7.63;;;;;;;15.97;45.64;96472.66;10351026;28;20034;-31
2023/03/02 06:26:43;;;;;;;9.63;5.80;;;;;;;15.99;44.98;96476.03;10337726;28;20384;-31
2023/03/02 06:31:43;;;;;;;21.08;13.35;;;;;;;15.05;41.48;96478.63;10319520;28;20458;-31
2023/03/02 06:36:43;;;;;;;25.97;15.10;;;;;;;15.30;40.80;96476.34;10350480;28;20486;-31
2023/03/02 06:41:45;;;;;;;20.53;15.07;;;;;;;15.49;40.97;96480.75;10345899;28;20042;-32
2023/03/02 06:46:45;;;;;;;17.65;13.95;;;;;;;15.56;41.48;96485.00;10328772;28;20795;-31
2023/03/02 06:51:46;;;;;;;18.27;12.40;;;;;;;15.62;42.01;96485.03;10350221;28;20052;-31
2023/03/02 06:56:46;;;;;;;17.47;10.53;;;;;;;15.67;42.40;96482.53;10353640;28;20174;-31
2023/03/02 07:01:48;;;;;;;14.30;10.70;;;;;;;15.68;42.82;96495.16;10320364;28;20038;-31
2023/03/02 07:06:48;;;;;;;14.77;10.40;;;;;;;15.71;42.96;96500.22;10357867;28;20038;-32
2023/03/02 07:11:49;;;;;;;11.15;8.75;;;;;;;15.70;43.13;96498.53;10359817;28;20088;-32
2023/03/02 07:16:49;;;;;;;10.93;7.82;;;;;;;15.73;43.27;96507.81;10337882;28;20052;-30
2023/03/02 07:21:50;;;;;;;9.80;7.50;;;;;;;15.75;43.58;96507.00;10351663;28;20130;-31
2023/03/02 07:26:50;;;;;;;15.73;8.00;;;;;;;15.74;43.05;96505.31;10335028;28;20117;-31
2023/03/02 07:31:55;;;;;;;10.90;8.20;;;;;;;15.78;43.35;96512.06;10345915;28;20043;-32
2023/03/02 07:36:56;;;;;;;9.48;6.85;;;;;;;15.82;42.91;96512.94;10362101;28;20030;-31
2023/03/02 07:41:58;;;;;;;7.22;6.43;;;;;;;15.81;43.65;96502.00;10343215;28;20491;-32
2023/03/02 07:47:00;;;;;;;8.48;6.10;;;;;;;15.81;43.33;96512.09;10314431;28;20061;-31
2023/03/02 07:52:02;;;;;;;7.77;6.00;;;;;;;15.79;43.85;96513.75;10345673;28;20114;-33
2023/03/02 07:57:02;;;;;;;8.50;6.03;;;;;;;15.79;43.69;96528.91;10329372;28;20526;-31
2023/03/02 08:02:03;;;;;;;9.17;5.97;;;;;;;15.79;44.01;96533.94;10336474;28;20060;-32
2023/03/02 08:07:03;;;;;;;8.70;6.03;;;;;;;15.78;43.64;96549.91;10361057;28;20034;-32
2023/03/02 08:12:04;;;;;;;7.60;5.30;;;;;;;15.78;43.80;96539.81;10356587;28;20033;-31
2023/03/02 08:17:04;;;;;;;6.70;5.30;;;;;;;15.77;44.17;96540.66;10355248;28;20038;-31
2023/03/02 08:22:05;;;;;;;5.88;5.15;;;;;;;15.76;44.01;96541.50;10344535;28;20403;-31
2023/03/02 08:27:06;;;;;;;7.80;5.17;;;;;;;15.78;43.98;96552.44;10323471;28;20043;-32
2023/03/02 08:32:07;;;;;;;6.85;5.65;;;;;;;15.78;43.96;96556.66;10343286;28;20072;-31
2023/03/02 08:37:09;;;;;;;6.70;5.40;;;;;;;15.74;44.18;96558.31;10336015;28;20045;-31
2023/03/02 08:42:10;;;;;;;6.60;4.90;;;;;;;15.72;43.85;96560.00;10346230;28;20034;-31
2023/03/02 08:47:10;;;;;;;7.43;4.97;;;;;;;15.77;43.83;96565.06;10357944;28;20042;-31
2023/03/02 08:52:13;;;;;;;6.72;5.25;;;;;;;15.72;43.92;96554.94;10348663;28;20030;-31
2023/03/02 08:57:14;;;;;;;6.50;5.55;;;;;;;15.78;44.61;96566.75;10350875;28;20041;-31
2023/03/02 09:02:14;;;;;;;6.73;5.27;;;;;;;15.78;43.99;96562.53;10361437;28;20483;-31
2023/03/02 09:07:16;;;;;;;6.37;4.67;;;;;;;15.79;44.45;96565.94;10351201;28;20042;-31
2023/03/02 09:12:16;;;;;;;4.88;4.25;;;;;;;15.79;44.14;96569.28;10334070;28;20343;-31
2023/03/02 09:17:16;;;;;;;5.87;5.13;;;;;;;15.78;44.10;96570.13;10326463;28;20085;-31
2023/03/02 09:22:17;;;;;;;5.03;4.20;;;;;;;15.77;44.33;96576.00;10326761;28;20046;-31
2023/03/02 09:27:17;;;;;;;5.28;4.07;;;;;;;15.76;44.16;96581.88;10342388;28;20432;-31
2023/03/02 09:32:18;;;;;;;6.47;4.73;;;;;;;15.73;44.22;96579.34;10313316;28;20042;-31
2023/03/02 09:37:18;;;;;;;5.23;4.50;;;;;;;15.72;44.55;96582.72;10356118;28;20038;-31
2023/03/02 09:42:34;;;;;;;5.27;4.63;;;;;;;15.74;44.24;96588.59;10352611;28;20490;-31
2023/03/02 09:47:49;;;;;;;5.10;4.23;;;;;;;15.72;44.39;96595.31;10325948;28;20046;-31
2023/03/02 09:53:05;;;;;;;5.53;4.70;;;;;;;15.71;44.36;96596.13;10312783;28;20286;-31
2023/03/02 09:58:13;;;;;;;7.82;4.30;;;;;;;15.68;44.99;96596.13;10338123;28;20033;-31
2023/03/02 10:03:17;;;;;;;7.38;4.30;;;;;;;15.70;44.44;96599.50;10360800;28;20116;-31
2023/03/02 10:08:22;;;;;;;5.85;5.18;;;;;;;15.71;44.20;96598.66;10352274;28;20064;-32
2023/03/02 10:13:34;;;;;;;5.40;4.55;;;;;;;15.74;44.29;96611.31;10335378;28;20490;-31
2023/03/02 10:18:57;;;;;;;5.60;4.18;;;;;;;15.77;43.88;96616.38;10347151;28;20401;-31
2023/03/02 10:24:30;;;;;;;5.38;4.38;;;;;;;15.78;44.62;96618.06;10337837;28;20046;-31
2023/03/02 10:29:43;;;;;;;6.57;4.82;;;;;;;15.79;44.30;96619.75;10326313;28;20031;-31
2023/03/02 10:34:43;;;;;;;4.65;4.05;;;;;;;15.79;44.19;96623.97;10355029;28;20042;-32
2023/03/02 10:39:44;;;;;;;5.47;4.40;;;;;;;15.76;44.69;96614.69;10324406;28;20034;-31
2023/03/02 10:44:49;;;;;;;5.03;3.95;;;;;;;15.76;44.49;96623.97;10309039;28;20286;-31
2023/03/02 10:49:51;;;;;;;4.80;4.07;;;;;;;15.72;44.60;96623.09;10344421;28;20094;-31
2023/03/02 10:55:06;;;;;;;6.30;4.47;;;;;;;15.72;44.76;96628.13;10337448;28;20085;-31
2023/03/02 11:00:21;;;;;;;5.10;4.05;;;;;;;15.71;44.38;96621.38;10364711;28;20421;-31
2023/03/02 11:05:35;;;;;;;4.90;4.40;;;;;;;15.71;44.43;96620.53;10356668;28;20133;-31
2023/03/02 11:10:39;;;;;;;4.95;4.30;;;;;;;15.77;44.35;96618.91;10355984;28;20038;-32
2023/03/02 11:15:45;;;;;;;4.68;3.95;;;;;;;15.85;43.59;96622.34;10337936;28;20030;-31
2023/03/02 11:20:51;;;;;;;4.37;3.97;;;;;;;15.94;43.44;96609.78;10323542;28;20518;-31
2023/03/02 11:25:55;;;;;;;4.35;3.92;;;;;;;15.98;43.64;96615.72;10330839;28;20516;-31
2023/03/02 11:30:59;;;;;;;5.50;4.57;;;;;;;16.06;43.13;96609.91;10320804;28;20501;-31
2023/03/02 11:36:17;;;;;;;8.95;4.00;;;;;;;16.09;43.53;96622.53;10344223;28;20034;-31
2023/03/02 11:41:28;;;;;;;8.70;4.32;;;;;;;16.21;44.24;96615.03;10336305;28;20421;-31
2023/03/02 11:46:30;;;;;;;12.52;7.90;;;;;;;16.16;43.93;96616.72;10353227;28;20494;-31
2023/03/02 11:51:41;;;;;;;10.13;5.75;;;;;;;16.14;44.49;96612.47;10321646;28;20901;-30
2023/03/02 11:56:42;;;;;;;9.80;5.78;;;;;;;16.17;44.07;96609.97;10345152;28;20030;-31
2023/03/02 12:01:46;;;;;;;9.93;5.13;;;;;;;16.19;43.94;96606.63;10320253;28;20035;-32
2023/03/02 12:06:47;;;;;;;6.40;5.07;;;;;;;16.23;44.47;96603.31;10352767;28;20159;-31
2023/03/02 12:11:55;;;;;;;6.03;5.23;;;;;;;16.27;44.22;96599.94;10359578;28;20209;-30
2023/03/02 12:17:21;;;;;;;6.38;4.82;;;;;;;16.31;44.29;96601.66;10354728;28;20701;-31
2023/03/02 12:22:27;;;;;;;7.53;4.90;;;;;;;16.34;44.35;96601.69;10344504;28;20055;-31
2023/03/02 12:27:37;;;;;;;5.67;4.40;;;;;;;16.36;44.03;96605.06;10335420;28;20565;-31
2023/03/02 12:32:38;;;;;;;6.78;4.35;;;;;;;16.38;44.40;96603.41;10327116;28;20569;-31
2023/03/02 12:37:41;;;;;;;5.72;4.90;;;;;;;16.34;44.64;96604.19;10336405;28;20050;-31
2023/03/02 12:43:15;;;;;;;4.93;4.22;;;;;;;16.37;44.60;96611.81;10335696;28;20048;-31
2023/03/02 12:48:21;;;;;;;6.72;4.00;;;;;;;16.34;44.59;96611.78;10340978;28;20073;-32
2023/03/02 12:53:22;;;;;;;7.53;4.27;;;;;;;16.34;44.91;96609.25;10353423;28;20037;-30
2023/03/02 12:58:29;;;;;;;14.37;4.30;;;;;;;16.34;45.02;96608.41;10350751;28;20034;-31
2023/03/02 13:03:30;;;;;;;17.20;5.43;;;;;;;16.15;45.86;96597.34;10333778;28;20037;-31
2023/03/02 13:08:31;;;;;;;10.63;5.05;;;;;;;16.22;45.44;96591.50;10359400;28;20087;-33
2023/03/02 13:13:31;;;;;;;10.68;4.10;;;;;;;16.25;45.63;96596.56;10344637;28;20091;-32
2023/03/02 13:18:35;;;;;;;13.93;4.43;;;;;;;16.24;45.10;96587.31;10357972;28;20042;-31
2023/03/02 13:23:35;;;;;;;6.32;4.38;;;;;;;16.22;44.88;96594.03;10343082;28;20057;-31
2023/03/02 13:28:38;;;;;;;12.20;4.63;;;;;;;16.21;44.37;96594.84;10350796;28;20533;-32
2023/03/02 13:33:43;;;;;;;8.93;4.25;;;;;;;16.18;45.07;96599.88;10341850;28;20030;-32
2023/03/02 13:38:48;;;;;;;7.88;4.07;;;;;;;16.20;44.25;96603.25;10374018;28;20117;-31
2023/03/02 13:43:48;;;;;;;10.30;3.78;;;;;;;16.26;44.38;96598.25;10346407;28;20407;-31
2023/03/02 13:48:53;;;;;;;6.35;4.35;;;;;;;16.17;45.40;96593.16;10344038;28;20045;-31
2023/03/02 13:53:57;;;;;;;11.05;4.15;;;;;;;16.15;44.69;96594.81;10341142;28;20097;-31
2023/03/02 13:58:57;;;;;;;5.30;4.22;;;;;;;16.13;44.79;96601.53;10347835;28;20042;-32
2023/03/02 14:04:00;;;;;;;5.43;3.83;;;;;;;16.14;44.78;96597.31;10345738;28;20049;-31
2023/03/02 14:09:00;;;;;;;5.50;3.83;;;;;;;16.14;45.02;96608.28;10341009;28;20571;-30
2023/03/02 14:14:03;;;;;;;10.82;5.70;;;;;;;16.14;44.46;96605.75;10323291;28;20062;-30
2023/03/02 14:19:03;;;;;;;7.35;4.25;;;;;;;16.18;44.36;96601.59;10321948;28;20427;-31
2023/03/02 14:24:04;;;;;;;11.07;4.83;;;;;;;16.17;45.33;96595.66;10316488;28;20035;-31
2023/03/02 14:29:25;;;;;;;8.18;4.97;;;;;;;16.19;46.24;96596.53;10316567;28;20035;-31
2023/03/02 14:34:25;;;;;;;17.08;6.65;;;;;;;16.23;47.63;96598.25;10331021;28;20046;-31
2023/03/02 14:39:32;;;;;;;20.70;7.47;;;;;;;16.11;46.04;96593.09;10361161;28;20056;-31
2023/03/02 14:44:33;;;;;;;15.88;7.65;;;;;;;16.14;45.26;96588.09;10333861;28;20868;-31
2023/03/02 14:49:33;;;;;;;18.57;6.83;;;;;;;16.19;45.07;96596.53;10323031;28;20170;-31
2023/03/02 14:54:39;;;;;;;12.77;5.40;;;;;;;16.21;44.61;96599.06;10327909;28;20041;-31
2023/03/02 14:59:40;;;;;;;9.10;5.03;;;;;;;16.23;44.44;96595.72;10328093;28;20316;-31
2023/03/02 15:04:40;;;;;;;9.40;5.47;;;;;;;16.23;44.29;96593.19;10307819;28;20038;-31
2023/03/02 15:09:44;;;;;;;15.47;6.07;;;;;;;16.23;44.48;96593.19;10330412;28;20038;-31
2023/03/02 15:14:44;;;;;;;14.20;5.80;;;;;;;16.24;44.18;96604.97;10337584;28;20049;-31
2023/03/02 15:19:45;;;;;;;11.10;5.27;;;;;;;16.21;45.51;96599.06;10333926;28;20048;-31
2023/03/02 15:24:45;;;;;;;13.38;5.20;;;;;;;16.21;44.07;96604.13;10320154;28;20048;-31
2023/03/02 15:29:46;;;;;;;8.23;5.17;;;;;;;16.23;44.58;96603.31;10317477;28;20039;-31
2023/03/02 15:34:47;;;;;;;13.25;4.85;;;;;;;16.23;43.64;96600.78;10328436;28;20030;-32
2023/03/02 15:39:52;;;;;;;10.75;5.20;;;;;;;16.26;45.49;96610.88;10322748;28;20037;-31
2023/03/02 15:44:52;;;;;;;23.85;7.13;;;;;;;16.19;46.93;96615.91;10333609;28;20093;-31
2023/03/02 15:49:53;;;;;;;14.37;6.23;;;;;;;16.21;46.46;96626.84;10331919;28;20081;-31
2023/03/02 15:54:53;;;;;;;35.03;8.13;;;;;;;16.31;49.54;96626.94;10328881;28;20383;-32
2023/03/02 15:59:53;;;;;;;20.37;12.27;;;;;;;15.95;43.75;96635.91;10317712;28;20360;-31
2023/03/02 16:04:54;;;;;;;22.33;11.37;;;;;;;16.09;43.61;96630.13;10319345;28;20034;-32
2023/03/02 16:09:54;;;;;;;21.07;10.40;;;;;;;16.14;43.92;96633.53;10352594;28;20081;-31
2023/03/02 16:14:54;;;;;;;22.15;10.23;;;;;;;16.20;44.10;96633.56;10352629;28;20393;-31
2023/03/02 16:19:55;;;;;;;33.47;12.30;;;;;;;15.98;45.91;96630.88;10345299;28;20033;-32
2023/03/02 16:24:55;;;;;;;21.73;9.30;;;;;;;16.13;46.37;96639.41;10336722;28;20088;-32
2023/03/02 16:29:56;;;;;;;36.07;9.27;;;;;;;16.16;46.28;96644.50;10329741;28;20045;-31
2023/03/02 16:34:56;;;;;;;25.08;8.40;;;;;;;16.15;49.63;96645.34;10338911;28;20038;-31
2023/03/02 16:39:56;;;;;;;19.90;7.40;;;;;;;16.10;48.64;96646.97;10368217;28;20033;-31
2023/03/02 16:44:57;;;;;;;18.52;7.32;;;;;;;16.07;47.45;96644.41;10349811;28;20792;-32
2023/03/02 16:49:57;;;;;;;14.05;6.45;;;;;;;16.13;47.45;96652.03;10320815;28;20398;-32
2023/03/02 16:54:58;;;;;;;11.50;6.37;;;;;;;16.13;47.05;96657.06;10341977;28;20706;-33
2023/03/02 16:59:58;;;;;;;15.00;5.70;;;;;;;16.12;47.41;96662.97;10343450;28;20289;-33
2023/03/02 17:04:58;;;;;;;22.13;8.80;;;;;;;15.94;45.44;96662.81;10329865;28;20038;-31
2023/03/02 17:09:59;;;;;;;18.10;8.30;;;;;;;16.06;47.01;96670.50;10346421;28;20041;-31
2023/03/02 17:14:59;;;;;;;22.48;7.57;;;;;;;16.13;47.54;96686.56;10351057;28;20041;-31
2023/03/02 17:20:00;;;;;;;22.93;9.07;;;;;;;16.13;48.02;96673.94;10358618;28;20500;-31
2023/03/02 17:25:00;;;;;;;22.20;8.63;;;;;;;16.17;48.96;96693.31;10366893;28;20399;-32
2023/03/02 17:30:00;;;;;;;23.03;8.50;;;;;;;16.11;49.39;96701.69;10335600;28;20034;-31
2023/03/02 17:35:01;;;;;;;17.73;6.68;;;;;;;16.10;47.86;96697.47;10362230;28;20034;-32
2023/03/02 17:40:01;;;;;;;18.77;6.93;;;;;;;16.14;47.68;96701.72;10345805;28;20042;-32
2023/03/02 17:45:02;;;;;;;17.73;6.78;;;;;;;16.21;51.25;96707.69;10339705;28;20034;-31
2023/03/02 17:50:03;;;;;;;22.52;7.20;;;;;;;16.21;51.09;96707.69;10339013;28;20034;-31
2023/03/02 17:55:04;;;;;;;14.30;5.97;;;;;;;16.22;49.47;96712.75;10361590;28;20076;-31
2023/03/02 18:00:14;;;;;;;14.25;5.80;;;;;;;16.25;50.26;96716.94;10346303;28;20129;-31
2023/03/02 18:05:14;;;;;;;15.05;5.55;;;;;;;16.28;50.36;96720.34;10345372;28;20042;-32
2023/03/02 18:10:14;;;;;;;20.50;6.47;;;;;;;16.27;50.97;96730.47;10326939;28;20507;-31
2023/03/02 18:15:15;;;;;;;13.98;6.18;;;;;;;16.27;51.69;96733.81;10362708;28;20307;-32
2023/03/02 18:20:15;;;;;;;18.98;5.97;;;;;;;16.26;49.94;96739.72;10352029;28;20038;-30
2023/03/02 18:25:16;;;;;;;19.42;5.80;;;;;;;16.30;50.96;96746.47;10357110;28;20026;-31
2023/03/02 18:30:18;;;;;;;14.53;6.30;;;;;;;16.31;49.64;96742.28;10365084;28;20089;-31
2023/03/02 18:35:19;;;;;;;15.75;6.38;;;;;;;16.27;51.15;96750.69;10353960;28;20065;-31
2023/03/02 18:40:19;;;;;;;18.05;7.15;;;;;;;16.22;53.18;96752.31;10348179;28;20505;-31
2023/03/02 18:45:29;;;;;;;13.65;7.70;;;;;;;16.24;51.21;96756.53;10356224;28;20482;-31
2023/03/02 18:50:29;;;;;;;19.20;7.57;;;;;;;16.23;49.80;96749.81;10342110;28;20080;-31
2023/03/02 18:55:30;;;;;;;14.68;7.88;;;;;;;16.26;50.62;96759.91;10355364;28;20092;-31
2023/03/02 19:00:31;;;;;;;16.63;7.63;;;;;;;16.24;50.33;96765.78;10350412;28;20508;-31
2023/03/02 19:05:31;;;;;;;12.60;6.75;;;;;;;16.24;50.38;96770.84;10340797;28;20113;-31
2023/03/02 19:10:32;;;;;;;12.73;8.20;;;;;;;16.16;51.96;96773.31;10347850;28;20092;-31
2023/03/02 19:15:33;;;;;;;19.05;9.85;;;;;;;16.16;50.58;96773.31;10313059;28;20034;-31
2023/03/02 19:20:34;;;;;;;15.05;8.15;;;;;;;16.21;50.04;96786.81;10341609;28;20395;-31
2023/03/02 19:25:34;;;;;;;15.63;10.13;;;;;;;16.19;50.26;96788.47;10341120;28;20034;-31
2023/03/02 19:30:35;;;;;;;19.67;10.73;;;;;;;16.18;49.83;96786.78;10366778;28;20115;-31
2023/03/02 19:35:36;;;;;;;13.73;8.30;;;;;;;16.20;49.94;96790.16;10325342;28;20049;-33
2023/03/02 19:40:37;;;;;;;13.57;9.68;;;;;;;16.21;50.09;96796.91;10353969;28;20121;-31
2023/03/02 19:45:37;;;;;;;17.50;9.98;;;;;;;16.19;49.59;96801.09;10351000;28;20041;-32
2023/03/02 19:50:38;;;;;;;14.20;9.50;;;;;;;16.20;48.99;96805.31;10340740;28;20296;-31
2023/03/02 19:55:41;;;;;;;17.52;12.18;;;;;;;16.21;50.05;96801.97;10357400;28;20281;-31
2023/03/02 20:00:42;;;;;;;22.33;11.73;;;;;;;16.19;50.49;96795.22;10354136;28;20038;-31
2023/03/02 20:05:43;;;;;;;16.13;11.50;;;;;;;16.19;50.17;96802.81;10329104;28;20037;-31
2023/03/02 20:10:45;;;;;;;16.67;10.18;;;;;;;16.19;49.17;96807.84;10336236;28;20042;-38
2023/03/02 20:15:46;;;;;;;14.95;10.13;;;;;;;16.19;48.82;96811.19;10330005;28;20023;-31
2023/03/02 20:20:47;;;;;;;12.82;9.30;;;;;;;16.20;49.05;96805.31;10356318;28;20186;-31
2023/03/02 20:25:48;;;;;;;13.90;9.88;;;;;;;16.21;48.83;96808.72;10340097;28;20036;-31
2023/03/02 20:30:53;;;;;;;11.52;9.07;;;;;;;16.18;48.55;96801.94;10351566;28;20029;-31
2023/03/02 20:35:54;;;;;;;13.63;9.07;;;;;;;16.17;48.85;96800.25;10333677;28;20101;-31
2023/03/02 20:40:56;;;;;;;13.43;10.07;;;;;;;16.14;48.32;96800.22;10327561;28;20026;-31
2023/03/02 20:45:57;;;;;;;16.48;9.60;;;;;;;16.09;49.56;96794.28;10332367;28;20046;-31
2023/03/02 20:51:00;;;;;;;11.15;7.68;;;;;;;16.14;49.91;96789.25;10337848;28;20042;-32
2023/03/02 20:56:00;;;;;;;15.32;9.68;;;;;;;16.12;49.91;96791.75;10315692;28;20046;-32
2023/03/02 21:01:01;;;;;;;14.52;8.27;;;;;;;16.15;49.14;96799.38;10334098;28;20030;-32
2023/03/02 21:06:02;;;;;;;11.50;8.38;;;;;;;16.17;48.97;96794.34;10310162;28;20039;-32
2023/03/02 21:11:07;;;;;;;13.18;8.15;;;;;;;16.16;48.60;96790.97;10349823;28;20073;-31
2023/03/02 21:16:08;;;;;;;11.20;7.95;;;;;;;16.18;49.49;96799.41;10348658;28;20379;-31
2023/03/02 21:21:08;;;;;;;10.38;7.43;;;;;;;16.19;49.84;96790.16;10352781;28;20022;-31
2023/03/02 21:26:11;;;;;;;12.60;7.45;;;;;;;16.19;49.31;96793.53;10333006;28;20049;-31
2023/03/02 21:31:14;;;;;;;12.75;8.05;;;;;;;16.18;48.82;96781.72;10342555;28;20466;-31
2023/03/02 21:36:18;;;;;;;9.60;6.97;;;;;;;16.16;49.09;96783.41;10336215;28;20034;-31
2023/03/02 21:41:19;;;;;;;8.07;6.32;;;;;;;16.15;48.82;96785.91;10343327;28;20509;-31
2023/03/02 21:46:21;;;;;;;8.90;6.45;;;;;;;16.15;49.11;96796.00;10357292;28;20092;-32
2023/03/02 21:51:22;;;;;;;7.60;6.15;;;;;;;16.09;49.63;96786.69;10345267;28;20034;-32
2023/03/02 21:56:24;;;;;;;9.88;6.22;;;;;;;16.06;49.68;96781.63;10342931;28;20034;-31
2023/03/02 22:01:25;;;;;;;10.27;6.13;;;;;;;16.08;49.52;96792.56;10348390;28;20038;-31
2023/03/02 22:06:28;;;;;;;10.45;6.03;;;;;;;16.08;49.33;96785.00;10350746;28;20042;-31
2023/03/02 22:11:33;;;;;;;12.23;6.18;;;;;;;16.02;49.61;96789.97;10348682;28;20529;-31
2023/03/02 22:16:36;;;;;;;7.95;5.90;;;;;;;16.03;49.61;96794.19;10319010;28;20507;-31
2023/03/02 22:21:40;;;;;;;6.32;5.70;;;;;;;16.02;49.89;96789.97;10344693;28;20029;-32
2023/03/02 22:26:46;;;;;;;8.48;5.88;;;;;;;16.00;49.83;96786.59;10352590;28;20516;-31
2023/03/02 22:31:49;;;;;;;8.80;5.72;;;;;;;15.99;49.42;96782.38;10334130;28;20494;-32
2023/03/02 22:36:50;;;;;;;8.05;5.22;;;;;;;16.03;49.11;96789.16;10353144;28;20029;-31
2023/03/02 22:41:57;;;;;;;8.25;5.72;;;;;;;16.04;50.00;96779.91;10338755;28;20026;-31
2023/03/02 22:46:58;;;;;;;;;;;;;;;16.04;49.57;96783.25;10343187;28;20034;-32
2023/03/02 22:52:02;;;;;;;6.05;4.90;;;;;;;15.99;49.62;96782.38;10331351;28;19918;-31
2023/03/02 22:57:02;;;;;;;7.10;5.32;;;;;;;15.97;49.80;96773.94;10347918;28;20417;-31
2023/03/02 23:02:16;;;;;;;7.70;5.28;;;;;;;15.97;49.90;96771.44;10342254;28;20034;-31
2023/03/02 23:07:20;;;;;;;6.40;4.93;;;;;;;15.95;49.55;96764.66;10339707;28;20037;-32
2023/03/02 23:12:33;;;;;;;12.38;5.43;;;;;;;15.95;49.46;96762.13;10332010;28;20400;-32
2023/03/02 23:17:39;;;;;;;7.38;5.30;;;;;;;15.91;49.86;96755.34;10330116;28;20510;-31
2023/03/02 23:22:41;;;;;;;6.80;4.85;;;;;;;15.92;49.40;96755.38;10330128;28;20066;-32